sensor_id;sensor_type;location;lat;lon;timestamp;P1;durP1;ratioP1;P2;durP2;ratioP2
14276;SDS011;7222;57.346;12.150;2023-02-28T00:00:31;3.27;;;2.80;;
14276;SDS011;7222;57.346;12.150;2023-02-28T00:02:58;3.60;;;3.20;;
14276;SDS011;7222;57.346;12.150;2023-02-28T00:05:25;4.53;;;3.33;;
14276;SDS011;7222;57.346;12.150;2023-02-28T00:07:53;5.17;;;3.13;;
14276;SDS011;7222;57.346;12.150;2023-02-28T00:10:24;3.10;;;2.80;;
14276;SDS011;7222;57.346;12.150;2023-02-28T00:12:54;3.83;;;3.27;;
14276;SDS011;7222;57.346;12.150;2023-02-28T00:15:24;4.93;;;3.33;;
14276;SDS011;7222;57.346;12.150;2023-02-28T00:17:51;3.10;;;2.80;;
14276;SDS011;7222;57.346;12.150;2023-02-28T00:20:18;3.57;;;3.00;;
14276;SDS011;7222;57.346;12.150;2023-02-28T00:22:46;3.77;;;3.23;;
14276;SDS011;7222;57.346;12.150;2023-02-28T00:25:17;3.63;;;3.20;;
14276;SDS011;7222;57.346;12.150;2023-02-28T00:27:45;4.67;;;3.27;;
14276;SDS011;7222;57.346;12.150;2023-02-28T00:30:13;3.90;;;3.50;;
14276;SDS011;7222;57.346;12.150;2023-02-28T00:32:43;7.23;;;4.07;;
14276;SDS011;7222;57.346;12.150;2023-02-28T00:35:10;8.80;;;3.93;;
14276;SDS011;7222;57.346;12.150;2023-02-28T00:37:38;4.03;;;3.17;;
14276;SDS011;7222;57.346;12.150;2023-02-28T00:40:05;3.50;;;2.97;;
14276;SDS011;7222;57.346;12.150;2023-02-28T00:42:34;6.30;;;4.87;;
14276;SDS011;7222;57.346;12.150;2023-02-28T00:45:01;10.30;;;5.47;;
14276;SDS011;7222;57.346;12.150;2023-02-28T00:47:30;6.63;;;4.43;;
14276;SDS011;7222;57.346;12.150;2023-02-28T00:49:59;7.70;;;5.13;;
14276;SDS011;7222;57.346;12.150;2023-02-28T00:52:27;7.87;;;4.53;;
14276;SDS011;7222;57.346;12.150;2023-02-28T00:54:54;5.63;;;4.07;;
14276;SDS011;7222;57.346;12.150;2023-02-28T00:57:21;4.33;;;3.60;;
14276;SDS011;7222;57.346;12.150;2023-02-28T00:59:48;5.23;;;3.80;;
14276;SDS011;7222;57.346;12.150;2023-02-28T01:02:15;4.47;;;3.50;;
14276;SDS011;7222;57.346;12.150;2023-02-28T01:04:43;7.07;;;4.30;;
14276;SDS011;7222;57.346;12.150;2023-02-28T01:07:11;6.77;;;4.40;;
14276;SDS011;7222;57.346;12.150;2023-02-28T01:09:39;4.07;;;3.67;;
14276;SDS011;7222;57.346;12.150;2023-02-28T01:12:06;4.90;;;3.40;;
14276;SDS011;7222;57.346;12.150;2023-02-28T01:14:34;4.53;;;3.97;;
14276;SDS011;7222;57.346;12.150;2023-02-28T01:17:01;7.03;;;4.20;;
14276;SDS011;7222;57.346;12.150;2023-02-28T01:19:28;6.00;;;4.60;;
14276;SDS011;7222;57.346;12.150;2023-02-28T01:21:55;6.13;;;4.30;;
14276;SDS011;7222;57.346;12.150;2023-02-28T01:24:23;7.63;;;4.67;;
14276;SDS011;7222;57.346;12.150;2023-02-28T01:26:50;7.13;;;5.40;;
14276;SDS011;7222;57.346;12.150;2023-02-28T01:29:17;6.27;;;4.20;;
14276;SDS011;7222;57.346;12.150;2023-02-28T01:31:44;5.57;;;4.20;;
14276;SDS011;7222;57.346;12.150;2023-02-28T01:34:11;4.10;;;3.70;;
14276;SDS011;7222;57.346;12.150;2023-02-28T01:36:38;5.17;;;3.73;;
14276;SDS011;7222;57.346;12.150;2023-02-28T01:39:05;5.17;;;4.67;;
14276;SDS011;7222;57.346;12.150;2023-02-28T01:41:33;6.23;;;4.53;;
14276;SDS011;7222;57.346;12.150;2023-02-28T01:44:02;6.40;;;4.90;;
14276;SDS011;7222;57.346;12.150;2023-02-28T01:46:31;6.60;;;4.60;;
14276;SDS011;7222;57.346;12.150;2023-02-28T01:49:02;5.57;;;3.90;;
14276;SDS011;7222;57.346;12.150;2023-02-28T01:51:34;5.77;;;3.63;;
14276;SDS011;7222;57.346;12.150;2023-02-28T01:54:10;7.17;;;4.70;;
14276;SDS011;7222;57.346;12.150;2023-02-28T01:56:45;6.90;;;5.13;;
14276;SDS011;7222;57.346;12.150;2023-02-28T01:59:19;6.90;;;3.90;;
14276;SDS011;7222;57.346;12.150;2023-02-28T02:01:49;5.40;;;4.20;;
14276;SDS011;7222;57.346;12.150;2023-02-28T02:04:16;5.73;;;4.60;;
14276;SDS011;7222;57.346;12.150;2023-02-28T02:06:44;4.97;;;4.23;;
14276;SDS011;7222;57.346;12.150;2023-02-28T02:09:13;7.00;;;5.17;;
14276;SDS011;7222;57.346;12.150;2023-02-28T02:11:40;6.00;;;4.63;;
14276;SDS011;7222;57.346;12.150;2023-02-28T02:14:30;5.90;;;4.47;;
14276;SDS011;7222;57.346;12.150;2023-02-28T02:17:07;4.93;;;3.53;;
14276;SDS011;7222;57.346;12.150;2023-02-28T02:23:02;5.77;;;3.87;;
14276;SDS011;7222;57.346;12.150;2023-02-28T02:25:45;4.57;;;3.40;;
14276;SDS011;7222;57.346;12.150;2023-02-28T02:31:30;4.43;;;3.37;;
14276;SDS011;7222;57.346;12.150;2023-02-28T02:37:25;8.73;;;4.57;;
14276;SDS011;7222;57.346;12.150;2023-02-28T02:40:00;6.80;;;4.20;;
14276;SDS011;7222;57.346;12.150;2023-02-28T02:42:35;4.87;;;3.80;;
14276;SDS011;7222;57.346;12.150;2023-02-28T02:45:08;5.90;;;4.40;;
14276;SDS011;7222;57.346;12.150;2023-02-28T02:47:37;6.87;;;4.70;;
14276;SDS011;7222;57.346;12.150;2023-02-28T02:50:07;7.30;;;5.40;;
14276;SDS011;7222;57.346;12.150;2023-02-28T02:52:40;7.17;;;4.83;;
14276;SDS011;7222;57.346;12.150;2023-02-28T02:55:10;6.00;;;3.50;;
14276;SDS011;7222;57.346;12.150;2023-02-28T02:57:42;5.63;;;3.97;;
14276;SDS011;7222;57.346;12.150;2023-02-28T03:00:13;7.63;;;4.37;;
14276;SDS011;7222;57.346;12.150;2023-02-28T03:02:43;6.20;;;4.20;;
14276;SDS011;7222;57.346;12.150;2023-02-28T03:05:14;6.17;;;5.23;;
14276;SDS011;7222;57.346;12.150;2023-02-28T03:07:47;9.80;;;6.00;;
14276;SDS011;7222;57.346;12.150;2023-02-28T03:13:01;9.13;;;5.67;;
14276;SDS011;7222;57.346;12.150;2023-02-28T03:15:37;7.83;;;5.50;;
14276;SDS011;7222;57.346;12.150;2023-02-28T03:18:13;8.40;;;5.43;;
14276;SDS011;7222;57.346;12.150;2023-02-28T03:20:46;9.40;;;5.43;;
14276;SDS011;7222;57.346;12.150;2023-02-28T03:23:21;8.43;;;4.57;;
14276;SDS011;7222;57.346;12.150;2023-02-28T03:25:54;6.93;;;4.73;;
14276;SDS011;7222;57.346;12.150;2023-02-28T03:28:28;7.67;;;5.37;;
14276;SDS011;7222;57.346;12.150;2023-02-28T03:31:03;8.70;;;5.70;;
14276;SDS011;7222;57.346;12.150;2023-02-28T03:33:39;6.97;;;5.40;;
14276;SDS011;7222;57.346;12.150;2023-02-28T03:36:10;7.20;;;5.50;;
14276;SDS011;7222;57.346;12.150;2023-02-28T03:38:44;7.83;;;4.93;;
14276;SDS011;7222;57.346;12.150;2023-02-28T03:41:15;5.90;;;5.30;;
14276;SDS011;7222;57.346;12.150;2023-02-28T03:43:50;8.07;;;5.97;;
14276;SDS011;7222;57.346;12.150;2023-02-28T03:46:22;7.13;;;5.37;;
14276;SDS011;7222;57.346;12.150;2023-02-28T03:48:53;10.37;;;5.77;;
14276;SDS011;7222;57.346;12.150;2023-02-28T03:51:26;7.23;;;5.00;;
14276;SDS011;7222;57.346;12.150;2023-02-28T03:53:58;5.73;;;4.77;;
14276;SDS011;7222;57.346;12.150;2023-02-28T03:56:29;8.13;;;4.53;;
14276;SDS011;7222;57.346;12.150;2023-02-28T03:59:02;6.27;;;4.73;;
14276;SDS011;7222;57.346;12.150;2023-02-28T04:01:35;8.30;;;5.17;;
14276;SDS011;7222;57.346;12.150;2023-02-28T04:04:06;5.90;;;4.63;;
14276;SDS011;7222;57.346;12.150;2023-02-28T04:06:34;6.80;;;4.80;;
14276;SDS011;7222;57.346;12.150;2023-02-28T04:09:02;6.17;;;4.50;;
14276;SDS011;7222;57.346;12.150;2023-02-28T04:11:32;7.50;;;4.60;;
14276;SDS011;7222;57.346;12.150;2023-02-28T04:14:00;5.33;;;3.93;;
14276;SDS011;7222;57.346;12.150;2023-02-28T04:16:29;8.07;;;4.57;;
14276;SDS011;7222;57.346;12.150;2023-02-28T04:18:56;4.53;;;3.93;;
14276;SDS011;7222;57.346;12.150;2023-02-28T04:21:27;7.63;;;4.40;;
14276;SDS011;7222;57.346;12.150;2023-02-28T04:23:54;7.03;;;5.37;;
14276;SDS011;7222;57.346;12.150;2023-02-28T04:26:22;7.73;;;5.60;;
14276;SDS011;7222;57.346;12.150;2023-02-28T04:28:49;6.37;;;4.50;;
14276;SDS011;7222;57.346;12.150;2023-02-28T04:31:16;7.50;;;4.73;;
14276;SDS011;7222;57.346;12.150;2023-02-28T04:33:43;6.97;;;5.00;;
14276;SDS011;7222;57.346;12.150;2023-02-28T04:36:10;6.40;;;5.40;;
14276;SDS011;7222;57.346;12.150;2023-02-28T04:38:38;9.77;;;5.63;;
14276;SDS011;7222;57.346;12.150;2023-02-28T04:41:05;8.27;;;6.20;;
14276;SDS011;7222;57.346;12.150;2023-02-28T04:43:33;9.03;;;6.03;;
14276;SDS011;7222;57.346;12.150;2023-02-28T04:46:01;7.53;;;4.90;;
14276;SDS011;7222;57.346;12.150;2023-02-28T04:48:30;5.43;;;4.20;;
14276;SDS011;7222;57.346;12.150;2023-02-28T04:50:59;5.50;;;4.87;;
14276;SDS011;7222;57.346;12.150;2023-02-28T04:53:27;6.80;;;4.90;;
14276;SDS011;7222;57.346;12.150;2023-02-28T04:55:55;8.37;;;5.40;;
14276;SDS011;7222;57.346;12.150;2023-02-28T04:58:22;6.13;;;4.63;;
14276;SDS011;7222;57.346;12.150;2023-02-28T05:00:50;6.77;;;5.00;;
14276;SDS011;7222;57.346;12.150;2023-02-28T05:03:18;7.33;;;5.13;;
14276;SDS011;7222;57.346;12.150;2023-02-28T05:05:45;9.83;;;6.33;;
14276;SDS011;7222;57.346;12.150;2023-02-28T05:08:12;5.70;;;4.30;;
14276;SDS011;7222;57.346;12.150;2023-02-28T05:10:39;5.87;;;4.80;;
14276;SDS011;7222;57.346;12.150;2023-02-28T05:13:08;7.30;;;5.27;;
14276;SDS011;7222;57.346;12.150;2023-02-28T05:15:37;8.23;;;5.10;;
14276;SDS011;7222;57.346;12.150;2023-02-28T05:18:06;5.53;;;4.43;;
14276;SDS011;7222;57.346;12.150;2023-02-28T05:20:34;8.07;;;4.97;;
14276;SDS011;7222;57.346;12.150;2023-02-28T05:23:02;7.47;;;5.00;;
14276;SDS011;7222;57.346;12.150;2023-02-28T05:25:29;8.00;;;5.20;;
14276;SDS011;7222;57.346;12.150;2023-02-28T05:27:56;9.27;;;4.73;;
14276;SDS011;7222;57.346;12.150;2023-02-28T05:30:23;7.77;;;4.67;;
14276;SDS011;7222;57.346;12.150;2023-02-28T05:32:50;6.87;;;4.60;;
14276;SDS011;7222;57.346;12.150;2023-02-28T05:35:19;4.63;;;4.17;;
14276;SDS011;7222;57.346;12.150;2023-02-28T05:37:46;6.90;;;4.87;;
14276;SDS011;7222;57.346;12.150;2023-02-28T05:40:13;5.60;;;4.43;;
14276;SDS011;7222;57.346;12.150;2023-02-28T05:42:40;4.77;;;3.70;;
14276;SDS011;7222;57.346;12.150;2023-02-28T05:45:08;4.40;;;3.50;;
14276;SDS011;7222;57.346;12.150;2023-02-28T05:47:35;4.93;;;4.40;;
14276;SDS011;7222;57.346;12.150;2023-02-28T05:50:03;3.90;;;3.50;;
14276;SDS011;7222;57.346;12.150;2023-02-28T05:52:32;5.83;;;4.03;;
14276;SDS011;7222;57.346;12.150;2023-02-28T05:54:59;5.50;;;4.10;;
14276;SDS011;7222;57.346;12.150;2023-02-28T05:57:26;5.10;;;4.60;;
14276;SDS011;7222;57.346;12.150;2023-02-28T05:59:53;6.93;;;4.27;;
14276;SDS011;7222;57.346;12.150;2023-02-28T06:02:20;6.63;;;4.30;;
14276;SDS011;7222;57.346;12.150;2023-02-28T06:04:47;6.87;;;4.20;;
14276;SDS011;7222;57.346;12.150;2023-02-28T06:07:14;5.93;;;4.40;;
14276;SDS011;7222;57.346;12.150;2023-02-28T06:09:44;6.03;;;4.70;;
14276;SDS011;7222;57.346;12.150;2023-02-28T06:12:10;6.93;;;4.57;;
14276;SDS011;7222;57.346;12.150;2023-02-28T06:14:37;7.60;;;5.73;;
14276;SDS011;7222;57.346;12.150;2023-02-28T06:17:04;8.87;;;5.40;;
14276;SDS011;7222;57.346;12.150;2023-02-28T06:19:31;7.27;;;5.10;;
14276;SDS011;7222;57.346;12.150;2023-02-28T06:21:58;6.30;;;5.00;;
14276;SDS011;7222;57.346;12.150;2023-02-28T06:24:25;6.83;;;4.90;;
14276;SDS011;7222;57.346;12.150;2023-02-28T06:26:55;9.60;;;5.43;;
14276;SDS011;7222;57.346;12.150;2023-02-28T06:29:24;10.80;;;7.07;;
14276;SDS011;7222;57.346;12.150;2023-02-28T06:31:51;6.07;;;4.30;;
14276;SDS011;7222;57.346;12.150;2023-02-28T06:34:18;6.93;;;4.97;;
14276;SDS011;7222;57.346;12.150;2023-02-28T06:36:45;8.97;;;5.20;;
14276;SDS011;7222;57.346;12.150;2023-02-28T06:39:12;8.67;;;5.23;;
14276;SDS011;7222;57.346;12.150;2023-02-28T06:41:38;6.57;;;4.83;;
14276;SDS011;7222;57.346;12.150;2023-02-28T06:44:08;7.53;;;5.50;;
14276;SDS011;7222;57.346;12.150;2023-02-28T06:46:38;10.17;;;6.93;;
14276;SDS011;7222;57.346;12.150;2023-02-28T06:49:05;9.20;;;6.27;;
14276;SDS011;7222;57.346;12.150;2023-02-28T06:51:34;11.87;;;8.50;;
14276;SDS011;7222;57.346;12.150;2023-02-28T06:54:02;13.43;;;9.47;;
14276;SDS011;7222;57.346;12.150;2023-02-28T06:56:29;16.80;;;11.63;;
14276;SDS011;7222;57.346;12.150;2023-02-28T06:58:57;17.00;;;11.60;;
14276;SDS011;7222;57.346;12.150;2023-02-28T07:01:26;19.40;;;12.47;;
14276;SDS011;7222;57.346;12.150;2023-02-28T07:03:53;20.30;;;13.60;;
14276;SDS011;7222;57.346;12.150;2023-02-28T07:06:20;21.67;;;12.80;;
14276;SDS011;7222;57.346;12.150;2023-02-28T07:08:48;17.50;;;12.13;;
14276;SDS011;7222;57.346;12.150;2023-02-28T07:11:15;20.77;;;12.50;;
14276;SDS011;7222;57.346;12.150;2023-02-28T07:13:42;22.70;;;14.17;;
14276;SDS011;7222;57.346;12.150;2023-02-28T07:16:10;22.40;;;15.73;;
14276;SDS011;7222;57.346;12.150;2023-02-28T07:18:40;28.97;;;18.80;;
14276;SDS011;7222;57.346;12.150;2023-02-28T07:21:08;24.83;;;16.47;;
14276;SDS011;7222;57.346;12.150;2023-02-28T07:23:36;21.47;;;15.33;;
14276;SDS011;7222;57.346;12.150;2023-02-28T07:26:04;21.17;;;14.20;;
14276;SDS011;7222;57.346;12.150;2023-02-28T07:28:32;20.43;;;14.03;;
14276;SDS011;7222;57.346;12.150;2023-02-28T07:31:03;22.00;;;14.17;;
14276;SDS011;7222;57.346;12.150;2023-02-28T07:33:31;21.43;;;14.50;;
14276;SDS011;7222;57.346;12.150;2023-02-28T07:36:03;21.30;;;14.30;;
14276;SDS011;7222;57.346;12.150;2023-02-28T07:38:33;24.63;;;14.67;;
14276;SDS011;7222;57.346;12.150;2023-02-28T07:41:00;23.87;;;15.50;;
14276;SDS011;7222;57.346;12.150;2023-02-28T07:43:29;24.57;;;16.10;;
14276;SDS011;7222;57.346;12.150;2023-02-28T07:46:00;23.53;;;16.23;;
14276;SDS011;7222;57.346;12.150;2023-02-28T07:48:29;23.83;;;15.17;;
14276;SDS011;7222;57.346;12.150;2023-02-28T07:50:56;26.77;;;16.90;;
14276;SDS011;7222;57.346;12.150;2023-02-28T07:53:26;26.50;;;16.43;;
14276;SDS011;7222;57.346;12.150;2023-02-28T07:55:54;53.80;;;22.07;;
14276;SDS011;7222;57.346;12.150;2023-02-28T07:58:21;46.97;;;22.60;;
14276;SDS011;7222;57.346;12.150;2023-02-28T08:00:48;42.57;;;22.23;;
14276;SDS011;7222;57.346;12.150;2023-02-28T08:03:17;44.37;;;22.80;;
14276;SDS011;7222;57.346;12.150;2023-02-28T08:05:45;46.00;;;24.23;;
14276;SDS011;7222;57.346;12.150;2023-02-28T08:08:12;46.40;;;21.10;;
14276;SDS011;7222;57.346;12.150;2023-02-28T08:10:41;42.43;;;22.90;;
14276;SDS011;7222;57.346;12.150;2023-02-28T08:13:09;60.73;;;27.20;;
14276;SDS011;7222;57.346;12.150;2023-02-28T08:15:36;129.87;;;34.03;;
14276;SDS011;7222;57.346;12.150;2023-02-28T08:18:03;101.00;;;30.00;;
14276;SDS011;7222;57.346;12.150;2023-02-28T08:20:30;181.40;;;33.10;;
14276;SDS011;7222;57.346;12.150;2023-02-28T08:22:57;59.00;;;26.27;;
14276;SDS011;7222;57.346;12.150;2023-02-28T08:25:24;78.13;;;25.50;;
14276;SDS011;7222;57.346;12.150;2023-02-28T08:27:53;56.90;;;24.87;;
14276;SDS011;7222;57.346;12.150;2023-02-28T08:30:20;62.80;;;27.77;;
14276;SDS011;7222;57.346;12.150;2023-02-28T08:32:47;77.70;;;28.30;;
14276;SDS011;7222;57.346;12.150;2023-02-28T08:35:14;94.87;;;32.90;;
14276;SDS011;7222;57.346;12.150;2023-02-28T08:37:41;139.27;;;40.43;;
14276;SDS011;7222;57.346;12.150;2023-02-28T08:40:09;129.47;;;41.27;;
14276;SDS011;7222;57.346;12.150;2023-02-28T08:42:38;149.13;;;43.13;;
14276;SDS011;7222;57.346;12.150;2023-02-28T08:45:08;134.07;;;51.10;;
14276;SDS011;7222;57.346;12.150;2023-02-28T08:47:35;147.83;;;49.83;;
14276;SDS011;7222;57.346;12.150;2023-02-28T08:50:02;151.87;;;53.80;;
14276;SDS011;7222;57.346;12.150;2023-02-28T08:52:29;120.33;;;46.37;;
14276;SDS011;7222;57.346;12.150;2023-02-28T08:54:56;85.63;;;38.30;;
14276;SDS011;7222;57.346;12.150;2023-02-28T08:57:23;96.80;;;41.53;;
14276;SDS011;7222;57.346;12.150;2023-02-28T08:59:52;107.23;;;40.90;;
14276;SDS011;7222;57.346;12.150;2023-02-28T09:02:20;106.70;;;42.23;;
14276;SDS011;7222;57.346;12.150;2023-02-28T09:04:47;122.93;;;44.17;;
14276;SDS011;7222;57.346;12.150;2023-02-28T09:07:14;107.17;;;39.67;;
14276;SDS011;7222;57.346;12.150;2023-02-28T09:09:41;121.17;;;40.83;;
14276;SDS011;7222;57.346;12.150;2023-02-28T09:12:18;118.70;;;43.33;;
14276;SDS011;7222;57.346;12.150;2023-02-28T09:14:45;148.40;;;40.43;;
14276;SDS011;7222;57.346;12.150;2023-02-28T09:17:12;122.50;;;33.90;;
14276;SDS011;7222;57.346;12.150;2023-02-28T09:19:41;79.47;;;29.90;;
14276;SDS011;7222;57.346;12.150;2023-02-28T09:22:08;61.97;;;28.40;;
14276;SDS011;7222;57.346;12.150;2023-02-28T09:24:35;56.33;;;24.10;;
14276;SDS011;7222;57.346;12.150;2023-02-28T09:27:03;71.30;;;26.97;;
14276;SDS011;7222;57.346;12.150;2023-02-28T09:29:31;65.13;;;25.67;;
14276;SDS011;7222;57.346;12.150;2023-02-28T09:31:59;57.60;;;23.70;;
14276;SDS011;7222;57.346;12.150;2023-02-28T09:34:26;63.00;;;23.73;;
14276;SDS011;7222;57.346;12.150;2023-02-28T09:36:57;59.40;;;22.07;;
14276;SDS011;7222;57.346;12.150;2023-02-28T09:39:24;59.33;;;25.30;;
14276;SDS011;7222;57.346;12.150;2023-02-28T09:41:52;66.20;;;24.07;;
14276;SDS011;7222;57.346;12.150;2023-02-28T09:44:23;58.27;;;23.83;;
14276;SDS011;7222;57.346;12.150;2023-02-28T09:46:56;51.87;;;23.10;;
14276;SDS011;7222;57.346;12.150;2023-02-28T09:49:28;55.57;;;21.23;;
14276;SDS011;7222;57.346;12.150;2023-02-28T09:52:03;56.73;;;21.70;;
14276;SDS011;7222;57.346;12.150;2023-02-28T09:54:34;44.93;;;20.10;;
14276;SDS011;7222;57.346;12.150;2023-02-28T09:57:05;38.77;;;19.87;;
14276;SDS011;7222;57.346;12.150;2023-02-28T09:59:48;44.73;;;20.17;;
14276;SDS011;7222;57.346;12.150;2023-02-28T10:02:41;49.53;;;19.20;;
14276;SDS011;7222;57.346;12.150;2023-02-28T10:05:30;48.37;;;19.33;;
14276;SDS011;7222;57.346;12.150;2023-02-28T10:08:03;46.87;;;19.90;;
14276;SDS011;7222;57.346;12.150;2023-02-28T10:10:37;42.60;;;19.13;;
14276;SDS011;7222;57.346;12.150;2023-02-28T10:13:12;40.40;;;19.07;;
14276;SDS011;7222;57.346;12.150;2023-02-28T10:15:49;43.20;;;19.40;;
14276;SDS011;7222;57.346;12.150;2023-02-28T10:18:20;43.83;;;18.77;;
14276;SDS011;7222;57.346;12.150;2023-02-28T10:20:50;41.17;;;17.83;;
14276;SDS011;7222;57.346;12.150;2023-02-28T10:23:23;37.33;;;15.97;;
14276;SDS011;7222;57.346;12.150;2023-02-28T10:25:54;29.57;;;14.83;;
14276;SDS011;7222;57.346;12.150;2023-02-28T10:28:24;32.23;;;14.07;;
14276;SDS011;7222;57.346;12.150;2023-02-28T10:30:55;34.40;;;13.80;;
14276;SDS011;7222;57.346;12.150;2023-02-28T10:33:24;39.33;;;15.77;;
14276;SDS011;7222;57.346;12.150;2023-02-28T10:35:52;34.57;;;17.10;;
14276;SDS011;7222;57.346;12.150;2023-02-28T10:38:20;57.67;;;20.27;;
14276;SDS011;7222;57.346;12.150;2023-02-28T10:40:50;46.43;;;19.63;;
14276;SDS011;7222;57.346;12.150;2023-02-28T10:43:21;42.23;;;18.30;;
14276;SDS011;7222;57.346;12.150;2023-02-28T10:45:53;38.53;;;15.67;;
14276;SDS011;7222;57.346;12.150;2023-02-28T10:48:36;30.17;;;15.13;;
14276;SDS011;7222;57.346;12.150;2023-02-28T10:51:05;29.23;;;15.93;;
14276;SDS011;7222;57.346;12.150;2023-02-28T10:53:46;28.37;;;13.80;;
14276;SDS011;7222;57.346;12.150;2023-02-28T10:56:16;22.90;;;13.47;;
14276;SDS011;7222;57.346;12.150;2023-02-28T10:58:47;25.90;;;14.07;;
14276;SDS011;7222;57.346;12.150;2023-02-28T11:01:19;25.13;;;14.07;;
14276;SDS011;7222;57.346;12.150;2023-02-28T11:03:49;38.37;;;16.90;;
14276;SDS011;7222;57.346;12.150;2023-02-28T11:06:20;17.07;;;11.07;;
14276;SDS011;7222;57.346;12.150;2023-02-28T11:08:51;18.30;;;10.50;;
14276;SDS011;7222;57.346;12.150;2023-02-28T11:11:20;17.00;;;10.50;;
14276;SDS011;7222;57.346;12.150;2023-02-28T11:13:51;19.67;;;11.83;;
14276;SDS011;7222;57.346;12.150;2023-02-28T11:16:20;17.10;;;11.50;;
14276;SDS011;7222;57.346;12.150;2023-02-28T11:18:49;15.27;;;9.97;;
14276;SDS011;7222;57.346;12.150;2023-02-28T11:21:21;15.03;;;9.57;;
14276;SDS011;7222;57.346;12.150;2023-02-28T11:23:53;12.03;;;8.07;;
14276;SDS011;7222;57.346;12.150;2023-02-28T11:26:37;14.00;;;9.43;;
14276;SDS011;7222;57.346;12.150;2023-02-28T11:29:09;13.40;;;9.27;;
14276;SDS011;7222;57.346;12.150;2023-02-28T11:31:39;13.07;;;8.30;;
14276;SDS011;7222;57.346;12.150;2023-02-28T11:34:22;10.23;;;7.17;;
14276;SDS011;7222;57.346;12.150;2023-02-28T11:36:51;9.00;;;7.43;;
14276;SDS011;7222;57.346;12.150;2023-02-28T11:39:20;7.57;;;5.90;;
14276;SDS011;7222;57.346;12.150;2023-02-28T11:41:54;7.50;;;5.50;;
14276;SDS011;7222;57.346;12.150;2023-02-28T11:44:43;6.93;;;5.20;;
14276;SDS011;7222;57.346;12.150;2023-02-28T11:47:23;7.90;;;5.83;;
14276;SDS011;7222;57.346;12.150;2023-02-28T11:50:04;7.40;;;4.60;;
14276;SDS011;7222;57.346;12.150;2023-02-28T11:52:43;7.17;;;4.87;;
14276;SDS011;7222;57.346;12.150;2023-02-28T11:55:17;6.80;;;4.80;;
14276;SDS011;7222;57.346;12.150;2023-02-28T12:00:50;5.37;;;3.87;;
14276;SDS011;7222;57.346;12.150;2023-02-28T12:03:27;4.10;;;3.43;;
14276;SDS011;7222;57.346;12.150;2023-02-28T12:06:05;4.50;;;3.67;;
14276;SDS011;7222;57.346;12.150;2023-02-28T12:08:47;4.67;;;3.00;;
14276;SDS011;7222;57.346;12.150;2023-02-28T12:11:26;2.93;;;2.67;;
14276;SDS011;7222;57.346;12.150;2023-02-28T12:14:15;2.80;;;2.50;;
14276;SDS011;7222;57.346;12.150;2023-02-28T12:17:08;3.60;;;2.97;;
14276;SDS011;7222;57.346;12.150;2023-02-28T12:19:45;3.83;;;2.93;;
14276;SDS011;7222;57.346;12.150;2023-02-28T12:22:29;4.17;;;3.00;;
14276;SDS011;7222;57.346;12.150;2023-02-28T12:28:14;3.10;;;2.70;;
14276;SDS011;7222;57.346;12.150;2023-02-28T12:30:49;4.33;;;3.93;;
14276;SDS011;7222;57.346;12.150;2023-02-28T12:33:21;6.33;;;4.40;;
14276;SDS011;7222;57.346;12.150;2023-02-28T12:35:54;5.00;;;3.70;;
14276;SDS011;7222;57.346;12.150;2023-02-28T12:38:23;9.80;;;4.97;;
14276;SDS011;7222;57.346;12.150;2023-02-28T12:40:54;4.50;;;3.90;;
14276;SDS011;7222;57.346;12.150;2023-02-28T12:43:29;4.87;;;3.90;;
14276;SDS011;7222;57.346;12.150;2023-02-28T12:46:00;4.77;;;4.17;;
14276;SDS011;7222;57.346;12.150;2023-02-28T12:48:33;3.27;;;2.97;;
14276;SDS011;7222;57.346;12.150;2023-02-28T12:51:06;4.40;;;4.00;;
14276;SDS011;7222;57.346;12.150;2023-02-28T12:53:35;3.90;;;3.50;;
14276;SDS011;7222;57.346;12.150;2023-02-28T12:56:12;4.10;;;3.70;;
14276;SDS011;7222;57.346;12.150;2023-02-28T12:58:47;3.50;;;3.20;;
14276;SDS011;7222;57.346;12.150;2023-02-28T13:01:25;3.03;;;2.77;;
14276;SDS011;7222;57.346;12.150;2023-02-28T13:04:27;3.00;;;2.70;;
14276;SDS011;7222;57.346;12.150;2023-02-28T13:07:10;2.50;;;2.30;;
14276;SDS011;7222;57.346;12.150;2023-02-28T13:09:53;2.50;;;2.30;;
14276;SDS011;7222;57.346;12.150;2023-02-28T13:12:22;2.93;;;2.70;;
14276;SDS011;7222;57.346;12.150;2023-02-28T13:14:51;2.30;;;2.10;;
14276;SDS011;7222;57.346;12.150;2023-02-28T13:17:30;2.60;;;2.40;;
14276;SDS011;7222;57.346;12.150;2023-02-28T13:19:59;2.37;;;2.17;;
14276;SDS011;7222;57.346;12.150;2023-02-28T13:22:39;2.50;;;2.30;;
14276;SDS011;7222;57.346;12.150;2023-02-28T13:28:14;2.43;;;2.10;;
14276;SDS011;7222;57.346;12.150;2023-02-28T13:31:25;1.80;;;1.70;;
14276;SDS011;7222;57.346;12.150;2023-02-28T13:34:05;2.00;;;1.83;;
14276;SDS011;7222;57.346;12.150;2023-02-28T13:36:39;2.43;;;2.23;;
14276;SDS011;7222;57.346;12.150;2023-02-28T13:42:23;2.47;;;2.27;;
14276;SDS011;7222;57.346;12.150;2023-02-28T13:47:52;2.30;;;2.10;;
14276;SDS011;7222;57.346;12.150;2023-02-28T13:50:29;2.80;;;2.60;;
14276;SDS011;7222;57.346;12.150;2023-02-28T13:56:03;2.97;;;2.67;;
14276;SDS011;7222;57.346;12.150;2023-02-28T13:58:46;3.63;;;3.17;;
14276;SDS011;7222;57.346;12.150;2023-02-28T14:01:29;4.10;;;3.20;;
14276;SDS011;7222;57.346;12.150;2023-02-28T14:07:16;3.40;;;3.10;;
14276;SDS011;7222;57.346;12.150;2023-02-28T14:09:51;11.80;;;3.80;;
14276;SDS011;7222;57.346;12.150;2023-02-28T14:15:27;4.43;;;3.80;;
14276;SDS011;7222;57.346;12.150;2023-02-28T14:18:03;4.00;;;3.20;;
14276;SDS011;7222;57.346;12.150;2023-02-28T14:20:41;13.27;;;3.63;;
14276;SDS011;7222;57.346;12.150;2023-02-28T14:23:10;4.13;;;2.97;;
14276;SDS011;7222;57.346;12.150;2023-02-28T14:25:45;4.03;;;2.97;;
14276;SDS011;7222;57.346;12.150;2023-02-28T14:28:23;3.40;;;2.43;;
14276;SDS011;7222;57.346;12.150;2023-02-28T14:31:04;2.77;;;2.50;;
14276;SDS011;7222;57.346;12.150;2023-02-28T14:33:42;3.23;;;2.10;;
14276;SDS011;7222;57.346;12.150;2023-02-28T14:36:22;2.47;;;2.10;;
14276;SDS011;7222;57.346;12.150;2023-02-28T14:38:52;78.27;;;7.90;;
14276;SDS011;7222;57.346;12.150;2023-02-28T14:41:24;25.87;;;3.90;;
14276;SDS011;7222;57.346;12.150;2023-02-28T14:43:56;13.73;;;3.03;;
14276;SDS011;7222;57.346;12.150;2023-02-28T14:46:25;104.53;;;11.20;;
14276;SDS011;7222;57.346;12.150;2023-02-28T14:48:56;8.97;;;2.20;;
14276;SDS011;7222;57.346;12.150;2023-02-28T14:51:24;44.50;;;5.50;;
14276;SDS011;7222;57.346;12.150;2023-02-28T14:53:55;21.00;;;3.70;;
14276;SDS011;7222;57.346;12.150;2023-02-28T14:56:26;2.47;;;2.10;;
14276;SDS011;7222;57.346;12.150;2023-02-28T14:58:56;29.83;;;4.03;;
14276;SDS011;7222;57.346;12.150;2023-02-28T15:01:23;22.10;;;3.47;;
14276;SDS011;7222;57.346;12.150;2023-02-28T15:03:58;33.60;;;4.97;;
14276;SDS011;7222;57.346;12.150;2023-02-28T15:06:29;91.60;;;7.97;;
14276;SDS011;7222;57.346;12.150;2023-02-28T15:09:07;17.37;;;3.07;;
14276;SDS011;7222;57.346;12.150;2023-02-28T15:11:35;11.23;;;2.70;;
14276;SDS011;7222;57.346;12.150;2023-02-28T15:14:03;23.63;;;3.57;;
14276;SDS011;7222;57.346;12.150;2023-02-28T15:16:31;8.70;;;2.40;;
14276;SDS011;7222;57.346;12.150;2023-02-28T15:19:01;52.67;;;5.67;;
14276;SDS011;7222;57.346;12.150;2023-02-28T15:21:34;8.20;;;2.57;;
14276;SDS011;7222;57.346;12.150;2023-02-28T15:24:04;38.83;;;4.13;;
14276;SDS011;7222;57.346;12.150;2023-02-28T15:26:34;21.20;;;3.47;;
14276;SDS011;7222;57.346;12.150;2023-02-28T15:29:06;35.60;;;4.13;;
14276;SDS011;7222;57.346;12.150;2023-02-28T15:31:35;17.23;;;3.00;;
14276;SDS011;7222;57.346;12.150;2023-02-28T15:34:06;26.70;;;3.23;;
14276;SDS011;7222;57.346;12.150;2023-02-28T15:36:43;9.33;;;2.13;;